Time;durP1;ratioP1;P1;durP2;ratioP2;P2;SDS_P1;SDS_P2;PMS_P1;PMS_P2;Temp;Humidity;BMP_temperature;BMP_pressure;BME280_temperature;BME280_humidity;BME280_pressure;Samples;Min_cycle;Max_cycle;Signal;HPM_P1;HPM_P2
2024/02/08 00:01:22;;;;;;;30.13;10.88;;;;;;;7.34;69.96;100567.34;5071189;28;20114;-50
2024/02/08 00:03:48;;;;;;;26.25;9.68;;;;;;;7.35;69.68;100563.91;5070100;28;20036;-51
2024/02/08 00:06:14;;;;;;;20.40;9.52;;;;;;;7.39;69.70;100564.84;5071141;28;20040;-49
2024/02/08 00:08:39;;;;;;;21.98;9.77;;;;;;;7.41;69.41;100573.53;5070595;28;20032;-50
2024/02/08 00:11:06;;;;;;;26.23;11.02;;;;;;;7.26;69.53;100576.66;5071250;28;20060;-49
2024/02/08 00:13:32;;;;;;;29.35;10.82;;;;;;;7.27;69.48;100578.41;5071000;28;20047;-47
2024/02/08 00:15:57;;;;;;;23.90;10.70;;;;;;;7.25;69.28;100583.59;5069840;28;20517;-51
2024/02/08 00:18:22;;;;;;;24.08;11.70;;;;;;;7.22;70.07;100582.63;5070419;28;20056;-51
2024/02/08 00:20:48;;;;;;;25.63;10.55;;;;;;;7.27;69.85;100583.59;5070263;28;20136;-51
2024/02/08 00:23:14;;;;;;;25.17;10.73;;;;;;;7.29;70.04;100581.94;5070682;28;20024;-48
2024/02/08 00:25:39;;;;;;;23.30;10.70;;;;;;;7.33;69.77;100579.44;5070253;28;20051;-48
2024/02/08 00:28:11;;;;;;;30.98;12.40;;;;;;;7.25;69.67;100572.34;5070135;28;20467;-47
2024/02/08 00:30:40;;;;;;;25.42;11.32;;;;;;;7.22;69.64;100564.50;5070428;28;20068;-50
2024/02/08 00:33:09;;;;;;;34.92;13.25;;;;;;;7.19;69.96;100559.25;5070622;28;20044;-50
2024/02/08 00:35:34;;;;;;;29.20;13.10;;;;;;;7.20;69.94;100548.88;5069239;28;20039;-53
2024/02/08 00:38:00;;;;;;;31.23;12.32;;;;;;;7.16;70.35;100548.81;5069676;28;20036;-50
2024/02/08 00:40:25;;;;;;;31.27;12.57;;;;;;;7.30;69.37;100548.28;5069999;28;20043;-51
2024/02/08 00:42:52;;;;;;;29.00;11.00;;;;;;;7.24;69.38;100548.13;5069718;28;20036;-51
2024/02/08 00:45:23;;;;;;;27.90;11.63;;;;;;;7.02;69.54;100558.84;5070498;28;20033;-52
2024/02/08 00:47:57;;;;;;;25.33;10.48;;;;;;;7.08;69.73;100555.53;5069861;28;20059;-51
2024/02/08 00:50:23;;;;;;;24.27;10.40;;;;;;;7.04;69.83;100558.91;5070457;28;20445;-49
2024/02/08 00:52:48;;;;;;;26.15;10.63;;;;;;;7.03;70.06;100554.56;5069856;28;20024;-48
2024/02/08 00:55:15;;;;;;;26.88;10.15;;;;;;;7.06;70.31;100557.22;5070323;28;20036;-52
2024/02/08 00:57:41;;;;;;;21.17;10.38;;;;;;;7.14;69.94;100556.53;5070215;28;20060;-52
2024/02/08 01:00:07;;;;;;;24.38;11.25;;;;;;;7.12;70.40;100552.19;5070539;28;20059;-50
2024/02/08 01:02:32;;;;;;;25.42;10.75;;;;;;;7.20;70.65;100551.47;5072091;28;20039;-50
2024/02/08 01:04:58;;;;;;;26.30;10.85;;;;;;;7.27;70.82;100539.53;5070411;28;20566;-53
2024/02/08 01:07:25;;;;;;;23.50;11.32;;;;;;;7.19;71.18;100549.75;5070345;28;20542;-51
2024/02/08 01:09:50;;;;;;;23.95;11.07;;;;;;;7.28;70.98;100547.34;5069712;28;20573;-47
2024/02/08 01:12:18;;;;;;;27.83;11.27;;;;;;;7.33;70.58;100545.72;5068937;28;20036;-50
2024/02/08 01:14:44;;;;;;;24.88;10.70;;;;;;;7.37;70.61;100540.63;5069571;28;20498;-50
2024/02/08 01:17:09;;;;;;;24.15;10.27;;;;;;;7.42;70.35;100554.56;5069619;28;20055;-48
2024/02/08 01:19:34;;;;;;;26.63;10.95;;;;;;;7.33;70.08;100563.00;5069155;28;20028;-55
2024/02/08 01:22:00;;;;;;;29.50;11.82;;;;;;;7.34;69.93;100564.75;5069700;28;20037;-49
2024/02/08 01:24:25;;;;;;;26.98;11.90;;;;;;;7.24;70.31;100555.91;5072006;28;20518;-53
2024/02/08 01:26:51;;;;;;;29.40;11.70;;;;;;;7.22;70.71;100542.03;5071552;28;20039;-48
2024/02/08 01:29:17;;;;;;;26.92;11.63;;;;;;;7.23;70.83;100540.31;5068782;28;20128;-51
2024/02/08 01:31:43;;;;;;;27.95;11.43;;;;;;;7.38;70.78;100532.84;5069261;28;20525;-52
2024/02/08 01:34:10;;;;;;;25.70;11.10;;;;;;;7.39;70.54;100537.19;5069911;28;20033;-48
2024/02/08 01:36:38;;;;;;;26.30;11.43;;;;;;;7.40;70.84;100530.28;5069305;28;20028;-49
2024/02/08 01:39:12;;;;;;;26.42;11.05;;;;;;;7.43;71.19;100526.06;5068982;28;20033;-49
2024/02/08 01:41:38;;;;;;;23.70;10.60;;;;;;;7.46;71.52;100526.09;5068920;28;20115;-51
2024/02/08 01:44:07;;;;;;;26.73;10.73;;;;;;;7.69;70.76;100517.06;5069459;28;20128;-49
2024/02/08 01:46:38;;;;;;;25.70;11.10;;;;;;;7.58;70.96;100520.28;5069592;28;20056;-48
2024/02/08 01:49:06;;;;;;;23.67;11.30;;;;;;;7.66;71.10;100524.78;5068692;28;20033;-48
2024/02/08 01:51:32;;;;;;;23.90;10.70;;;;;;;7.78;70.78;100515.50;5069317;28;20025;-48
2024/02/08 01:54:01;;;;;;;27.75;11.32;;;;;;;7.78;70.63;100529.34;5069250;28;20033;-48
2024/02/08 01:56:27;;;;;;;23.48;10.75;;;;;;;7.68;70.30;100533.47;5068078;28;20036;-49
2024/02/08 01:58:53;;;;;;;28.83;11.88;;;;;;;7.50;71.19;100530.50;5069263;28;20036;-49
2024/02/08 02:01:22;;;;;;;28.35;11.07;;;;;;;7.57;70.95;100534.97;5069291;28;20032;-51
2024/02/08 02:03:48;;;;;;;24.50;10.98;;;;;;;7.60;70.76;100537.63;5069048;28;20471;-50
2024/02/08 02:06:14;;;;;;;29.48;12.05;;;;;;;7.61;70.99;100535.94;5069262;28;20107;-48
2024/02/08 02:08:40;;;;;;;23.83;11.25;;;;;;;7.64;70.87;100539.44;5068645;28;20123;-48
2024/02/08 02:11:26;;;;;;;27.05;11.35;;;;;;;7.61;71.11;100520.38;5069637;28;20079;-51
2024/02/08 02:13:52;;;;;;;33.40;12.38;;;;;;;7.73;71.27;100502.44;5068411;28;20120;-48
2024/02/08 02:16:17;;;;;;;27.95;11.95;;;;;;;7.78;71.28;100505.09;5069205;28;20524;-51
2024/02/08 02:18:43;;;;;;;27.90;12.05;;;;;;;7.79;71.11;100505.16;5068505;28;20036;-49
2024/02/08 02:21:13;;;;;;;32.00;13.02;;;;;;;7.88;70.63;100514.81;5069302;28;20036;-50
2024/02/08 02:23:40;;;;;;;28.38;11.98;;;;;;;7.88;70.63;100514.81;5069103;28;20086;-50
2024/02/08 02:26:07;;;;;;;28.27;13.02;;;;;;;7.78;71.07;100510.28;5069272;28;20147;-48
2024/02/08 02:28:33;;;;;;;35.28;14.20;;;;;;;7.67;71.35;100503.19;5068882;28;20043;-52
2024/02/08 02:30:59;;;;;;;30.60;12.23;;;;;;;7.82;71.06;100501.72;5068670;28;20437;-52
2024/02/08 02:33:25;;;;;;;29.92;12.95;;;;;;;7.90;70.55;100506.22;5068749;28;20025;-49
2024/02/08 02:35:52;;;;;;;31.83;13.07;;;;;;;7.91;70.46;100510.56;5068665;28;20097;-50
2024/02/08 02:38:18;;;;;;;42.45;14.80;;;;;;;7.83;70.20;100501.75;5068967;28;20032;-51
2024/02/08 02:40:46;;;;;;;32.47;14.93;;;;;;;7.74;70.70;100492.06;5072408;28;20044;-49
2024/02/08 02:43:13;;;;;;;36.58;15.13;;;;;;;7.83;70.97;100500.88;5073053;28;20522;-50
2024/02/08 02:45:40;;;;;;;40.75;15.95;;;;;;;7.96;70.70;100510.63;5072610;28;20040;-48
2024/02/08 02:48:05;;;;;;;36.90;16.27;;;;;;;7.96;70.46;100501.13;5072702;28;20041;-52
2024/02/08 02:50:32;;;;;;;40.33;17.90;;;;;;;7.89;70.66;100498.38;5073134;28;20037;-48
2024/02/08 02:52:58;;;;;;;43.60;18.58;;;;;;;7.85;70.76;100491.41;5072629;28;20120;-49
2024/02/08 02:55:23;;;;;;;48.35;18.38;;;;;;;7.83;71.17;100490.50;5072902;28;20123;-49
2024/02/08 02:57:49;;;;;;;46.47;19.48;;;;;;;7.79;71.23;100481.78;5072226;28;20128;-52
2024/02/08 03:00:21;;;;;;;43.20;18.45;;;;;;;7.86;71.03;100483.66;5072262;28;20037;-49
2024/02/08 03:02:50;;;;;;;42.20;17.80;;;;;;;7.94;70.45;100482.03;5071702;28;20040;-52
2024/02/08 03:05:22;;;;;;;48.70;19.80;;;;;;;7.90;70.42;100476.78;5072367;28;20804;-51
2024/02/08 03:07:49;;;;;;;48.72;20.48;;;;;;;7.90;71.12;100475.06;5072086;28;20082;-49
2024/02/08 03:10:19;;;;;;;54.70;22.00;;;;;;;7.91;70.41;100468.16;5072115;28;20403;-49
2024/02/08 03:12:46;;;;;;;47.88;21.42;;;;;;;7.89;70.82;100462.94;5071710;28;20123;-47
2024/02/08 03:15:12;;;;;;;52.92;22.77;;;;;;;7.92;70.91;100468.19;5072144;28;20052;-51
2024/02/08 03:17:38;;;;;;;55.63;22.75;;;;;;;7.93;70.40;100469.91;5071659;28;20115;-54
2024/02/08 03:20:08;;;;;;;57.78;23.10;;;;;;;7.95;70.24;100457.84;5071625;28;20120;-50
2024/02/08 03:22:37;;;;;;;49.53;23.20;;;;;;;7.88;70.84;100452.50;5072123;28;20078;-50
2024/02/08 03:25:06;;;;;;;55.75;22.20;;;;;;;8.04;70.40;100454.53;5070467;28;20056;-50
2024/02/08 03:27:32;;;;;;;52.03;22.73;;;;;;;7.95;70.47;100457.84;5072301;28;20025;-48
2024/02/08 03:30:05;;;;;;;53.88;23.52;;;;;;;7.88;70.63;100450.78;5071525;28;20037;-48
2024/02/08 03:32:30;;;;;;;51.58;21.48;;;;;;;8.00;71.11;100452.72;5072202;28;20534;-51
2024/02/08 03:34:56;;;;;;;52.17;21.58;;;;;;;8.01;70.26;100447.56;5071498;28;20103;-51
2024/02/08 03:37:22;;;;;;;49.30;21.98;;;;;;;8.08;70.22;100449.41;5071656;28;20082;-48
2024/02/08 03:39:47;;;;;;;49.55;21.30;;;;;;;8.04;70.13;100459.75;5071116;28;20045;-48
2024/02/08 03:42:16;;;;;;;53.35;23.42;;;;;;;7.97;70.20;100466.53;5071584;28;20032;-49
2024/02/08 03:44:42;;;;;;;53.08;22.20;;;;;;;7.99;70.48;100461.38;5071299;28;20067;-51
2024/02/08 03:47:10;;;;;;;53.78;23.42;;;;;;;8.01;70.29;100457.06;5071494;28;20443;-49
2024/02/08 03:49:35;;;;;;;55.38;23.42;;;;;;;8.04;70.25;100445.03;5071113;28;20536;-47
2024/02/08 03:52:02;;;;;;;51.60;23.20;;;;;;;8.00;70.73;100440.63;5070722;28;20032;-47
2024/02/08 03:54:30;;;;;;;54.55;24.08;;;;;;;8.03;70.66;100435.50;5071455;28;20036;-50
2024/02/08 03:56:59;;;;;;;58.70;24.38;;;;;;;8.06;70.71;100419.94;5070738;28;20467;-50
2024/02/08 03:59:26;;;;;;;55.60;22.73;;;;;;;8.19;70.60;100420.16;5071104;28;20098;-51
2024/02/08 04:02:03;;;;;;;48.25;21.65;;;;;;;8.17;69.95;100412.34;5070683;28;20029;-50
2024/02/08 04:04:59;;;;;;;52.95;22.30;;;;;;;8.22;69.90;100408.09;5071269;28;20032;-48
2024/02/08 04:07:45;;;;;;;51.45;22.70;;;;;;;8.19;70.35;100397.66;5070544;28;20540;-49
2024/02/08 04:10:29;;;;;;;47.42;20.77;;;;;;;8.15;70.12;100391.56;5070606;28;20120;-49
2024/02/08 04:53:56;;;;;;;33.17;15.25;;;;;;;8.10;68.94;100406.19;5070047;28;20063;-51
2024/02/08 04:56:22;;;;;;;35.13;15.07;;;;;;;8.00;69.14;100411.19;5070304;28;20056;-54
2024/02/08 04:58:47;;;;;;;30.38;15.13;;;;;;;7.98;69.62;100405.13;5069552;28;20443;-46
2024/02/08 05:01:13;;;;;;;34.92;15.95;;;;;;;8.01;69.86;100394.78;5070345;28;20040;-50
2024/02/08 05:03:42;;;;;;;32.35;15.50;;;;;;;8.03;69.88;100400.88;5070216;28;20032;-47
2024/02/08 05:06:30;;;;;;;35.45;15.55;;;;;;;8.06;70.06;100403.50;5071540;28;20127;-47
2024/02/08 05:08:59;;;;;;;36.95;14.60;;;;;;;7.96;70.16;100394.69;5070637;28;20041;-51
2024/02/08 05:11:28;;;;;;;33.28;14.77;;;;;;;8.15;70.02;100390.69;5071667;28;20043;-48
2024/02/08 05:13:59;;;;;;;34.90;15.45;;;;;;;8.15;69.95;100382.88;5070111;28;20067;-52
2024/02/08 05:16:26;;;;;;;32.20;15.00;;;;;;;8.22;69.52;100384.72;5069932;28;20406;-50
2024/02/08 05:18:53;;;;;;;38.65;15.45;;;;;;;8.24;69.37;100383.00;5069310;28;20036;-51
2024/02/08 05:21:19;;;;;;;32.67;14.88;;;;;;;8.29;69.23;100383.09;5069828;28;20417;-52
2024/02/08 05:23:47;;;;;;;32.00;14.43;;;;;;;8.21;69.84;100363.94;5069349;28;20123;-53
2024/02/08 05:26:18;;;;;;;34.00;14.90;;;;;;;8.20;69.72;100373.44;5069596;28;20093;-51
2024/02/08 05:28:47;;;;;;;32.58;14.70;;;;;;;8.27;69.71;100374.41;5068973;28;20024;-49
2024/02/08 05:31:13;;;;;;;29.08;14.48;;;;;;;8.32;69.40;100365.84;5069634;28;20028;-50
2024/02/08 05:33:40;;;;;;;30.42;14.57;;;;;;;8.12;69.66;100362.94;5069389;28;20556;-49
2024/02/08 05:36:11;;;;;;;28.65;14.25;;;;;;;8.31;69.65;100356.31;5069733;28;20059;-50
2024/02/08 05:38:42;;;;;;;24.90;13.43;;;;;;;8.32;69.43;100365.84;5068924;28;20028;-48
2024/02/08 05:41:09;;;;;;;30.27;13.85;;;;;;;8.23;69.92;100363.13;5070113;28;20032;-49
2024/02/08 05:43:44;;;;;;;30.40;13.43;;;;;;;8.24;69.83;100364.84;5069774;28;20040;-51
2024/02/08 05:46:24;;;;;;;27.38;13.82;;;;;;;8.32;69.52;100368.47;5069417;28;20048;-49
2024/02/08 05:48:53;;;;;;;33.90;14.43;;;;;;;8.31;69.22;100363.22;5068568;28;20040;-49
2024/02/08 05:51:20;;;;;;;33.75;14.18;;;;;;;8.27;69.18;100353.63;5069255;28;20483;-47
2024/02/08 05:53:47;;;;;;;27.05;13.38;;;;;;;8.28;69.78;100360.56;5069133;28;20105;-49
2024/02/08 05:56:15;;;;;;;34.05;13.95;;;;;;;8.33;69.42;100364.13;5069517;28;20518;-47
2024/02/08 05:58:44;;;;;;;30.27;14.00;;;;;;;8.23;69.72;100359.63;5069181;28;20080;-48
2024/02/08 06:01:20;;;;;;;31.75;13.82;;;;;;;8.33;69.41;100351.16;5070445;28;20494;-50
2024/02/08 06:03:48;;;;;;;33.08;14.13;;;;;;;8.36;69.22;100343.38;5070447;28;20036;-48
2024/02/08 06:06:21;;;;;;;29.48;13.13;;;;;;;8.34;69.30;100327.81;5071344;28;20029;-49
2024/02/08 06:08:56;;;;;;;35.67;13.00;;;;;;;8.22;69.69;100324.13;5068687;28;20041;-47
2024/02/08 06:11:23;;;;;;;28.75;12.60;;;;;;;8.44;69.28;100315.81;5069363;28;20025;-50
2024/02/08 06:13:55;;;;;;;29.05;12.07;;;;;;;8.58;68.51;100310.78;5070125;28;20036;-52
2024/02/08 06:16:27;;;;;;;28.70;12.40;;;;;;;8.64;68.53;100305.66;5073572;28;20027;-48
2024/02/08 06:19:02;;;;;;;30.67;12.57;;;;;;;8.66;67.75;100297.00;5072530;28;20039;-47
2024/02/08 06:21:41;;;;;;;32.88;12.63;;;;;;;8.27;68.18;100292.19;5073328;28;20044;-47
2024/02/08 06:24:44;;;;;;;29.35;12.70;;;;;;;8.16;69.49;100285.97;5073087;28;20509;-50
2024/02/08 06:27:01;;;;;;;36.33;13.63;;;;;;;8.38;68.66;100289.75;5071990;28;20139;-52
2024/02/08 06:29:42;;;;;;;31.63;13.13;;;;;;;8.35;68.70;100280.22;5072432;28;20044;-49
2024/02/08 06:32:23;;;;;;;36.55;13.30;;;;;;;8.25;69.06;100265.31;5072866;28;20025;-51
2024/02/08 06:35:09;;;;;;;30.52;12.80;;;;;;;8.17;69.82;100269.56;5072642;28;20043;-48
2024/02/08 06:37:43;;;;;;;33.10;12.57;;;;;;;8.37;68.96;100272.41;5072305;28;20073;-49
2024/02/08 06:43:27;;;;;;;32.05;11.20;;;;;;;7.98;69.79;100278.81;5072697;28;20071;-47
2024/02/08 06:46:18;;;;;;;26.95;11.02;;;;;;;8.39;68.60;100276.78;5072133;28;20033;-49
2024/02/08 07:37:36;;;;;;;28.50;11.65;;;;;;;8.32;69.95;100223.03;5071380;28;20055;-52
2024/02/08 07:40:23;;;;;;;31.85;12.35;;;;;;;8.54;69.17;100211.13;5071091;28;20028;-50
2024/02/08 07:42:52;;;;;;;28.83;11.70;;;;;;;8.58;69.06;100217.25;5069837;28;20469;-50
2024/02/08 07:45:26;;;;;;;30.83;11.48;;;;;;;8.57;68.70;100220.69;5071620;28;20028;-51
2024/02/08 07:47:58;;;;;;;39.47;11.68;;;;;;;8.35;70.17;100220.47;5071065;28;20477;-50
2024/02/08 07:50:25;;;;;;;37.63;11.75;;;;;;;8.45;69.64;100224.91;5071466;28;20033;-49
2024/02/08 07:52:57;;;;;;;33.45;11.27;;;;;;;8.28;69.01;100217.75;5070809;28;20082;-49
2024/02/08 07:55:53;;;;;;;25.45;11.13;;;;;;;8.72;68.29;100220.88;5071583;28;20028;-51
2024/02/08 07:58:17;;;;;;;35.78;11.35;;;;;;;8.29;69.02;100219.50;5070724;28;20051;-49
2024/02/08 08:00:43;;;;;;;29.50;11.00;;;;;;;8.38;68.73;100220.50;5070849;28;20418;-52
2024/02/08 08:03:15;;;;;;;27.13;10.63;;;;;;;8.65;67.57;100213.88;5071026;28;20037;-53
2024/02/08 08:05:44;;;;;;;28.13;10.85;;;;;;;9.00;66.38;100206.41;5070717;28;20399;-48
2024/02/08 08:08:24;;;;;;;30.67;11.02;;;;;;;8.70;67.52;100199.19;5070600;28;20033;-47
2024/02/08 08:11:02;;;;;;;24.65;9.98;;;;;;;8.93;66.76;100193.34;5070923;28;20032;-51
2024/02/08 08:19:08;;;;;;;27.25;8.80;;;;;;;8.70;66.23;100181.88;5070166;28;20123;-49
2024/02/08 08:24:25;;;;;;;22.08;8.23;;;;;;;8.52;66.34;100166.97;5070723;28;20040;-49
2024/02/08 08:27:06;;;;;;;25.23;7.68;;;;;;;8.41;67.24;100171.19;5070397;28;20119;-49
2024/02/08 08:29:43;;;;;;;22.35;7.30;;;;;;;8.41;65.88;100157.34;5070433;28;20048;-47
2024/02/08 08:33:07;;;;;;;21.83;7.90;;;;;;;8.60;65.16;100158.41;5070405;28;20032;-47
2024/02/08 08:40:47;;;;;;;20.98;6.50;;;;;;;9.28;63.26;100140.75;5033898;28;20087;-47
2024/02/08 08:43:22;;;;;;;21.27;6.30;;;;;;;8.62;64.45;100128.97;5038366;28;20030;-48
2024/02/08 08:45:50;;;;;;;19.08;6.78;;;;;;;8.67;63.63;100121.19;5038319;28;20040;-47
2024/02/08 08:48:29;;;;;;;21.95;5.90;;;;;;;9.29;61.66;100116.47;5029625;28;20109;-50
2024/02/08 08:50:56;;;;;;;20.92;6.05;;;;;;;8.91;63.08;100116.19;5029795;28;20045;-47
2024/02/08 08:53:43;;;;;;;20.70;7.13;;;;;;;8.96;62.46;100112.78;5030000;28;20037;-48
2024/02/08 08:56:11;;;;;;;20.88;6.05;;;;;;;8.48;63.47;100107.16;5023072;28;20041;-48
2024/02/08 08:58:40;;;;;;;20.88;5.38;;;;;;;8.66;62.66;100102.13;5029100;28;20037;-48
2024/02/08 09:01:15;;;;;;;21.10;5.35;;;;;;;9.17;61.08;100098.19;5030082;28;20041;-49
2024/02/08 09:04:25;;;;;;;14.82;5.00;;;;;;;9.13;61.47;100105.13;5029580;28;20488;-50
2024/02/08 09:06:52;;;;;;;15.93;4.78;;;;;;;8.91;61.15;100104.06;5029322;28;20041;-47
2024/02/08 09:09:27;;;;;;;18.48;5.07;;;;;;;8.50;62.08;100100.25;5029597;28;20025;-46
2024/02/08 09:11:57;;;;;;;17.27;4.93;;;;;;;9.00;61.06;100103.28;5029330;28;20516;-47
2024/02/08 09:14:32;;;;;;;17.52;4.85;;;;;;;9.29;60.26;100103.47;5029954;28;20040;-47
2024/02/08 09:16:58;;;;;;;14.38;4.30;;;;;;;8.62;63.04;100107.28;5029077;28;20400;-44
2024/02/08 09:19:32;;;;;;;19.90;4.78;;;;;;;8.65;63.06;100087.44;5029159;28;20033;-50
2024/02/08 09:21:59;;;;;;;19.08;4.70;;;;;;;8.56;63.65;100113.31;5029253;28;20041;-48
2024/02/08 09:24:26;;;;;;;15.55;4.60;;;;;;;9.05;62.83;100106.78;5029560;28;20310;-50
2024/02/08 09:27:15;;;;;;;18.33;4.35;;;;;;;8.87;62.47;100104.06;5029170;28;20042;-49
2024/02/08 09:29:42;;;;;;;12.45;3.97;;;;;;;8.40;63.49;100101.91;5029129;28;20288;-47
2024/02/08 09:32:43;;;;;;;16.38;4.55;;;;;;;8.88;62.42;100095.41;5029673;28;20447;-48
2024/02/08 09:35:01;;;;;;;14.13;4.55;;;;;;;8.64;62.53;100090.00;5020842;28;20030;-46
2024/02/08 09:37:29;;;;;;;15.55;4.47;;;;;;;8.72;62.65;100086.59;5029092;28;20399;-48
2024/02/08 09:39:58;;;;;;;13.73;4.78;;;;;;;9.10;61.70;100078.22;5028505;28;20041;-47
2024/02/08 09:42:27;;;;;;;15.40;4.70;;;;;;;8.76;62.73;100070.19;5029223;28;20038;-48
2024/02/08 09:45:13;;;;;;;18.42;5.15;;;;;;;8.55;63.82;100064.81;5028919;28;20524;-43
2024/02/08 09:47:51;;;;;;;18.70;4.68;;;;;;;9.01;63.12;100055.66;5028544;28;20033;-48
2024/02/08 09:50:23;;;;;;;19.48;4.80;;;;;;;8.89;63.05;100052.97;5028635;28;20052;-49
2024/02/08 09:52:56;;;;;;;18.83;5.20;;;;;;;8.19;65.45;100051.44;5028841;28;20403;-48
2024/02/08 09:55:27;;;;;;;14.07;4.60;;;;;;;8.07;66.05;100039.22;5029488;28;20433;-46
2024/02/08 09:57:55;;;;;;;14.32;4.90;;;;;;;8.51;64.81;100039.66;5028373;28;20033;-44
2024/02/08 10:00:44;;;;;;;20.90;4.80;;;;;;;8.39;65.55;100031.78;5029484;28;20099;-47
2024/02/08 10:03:22;;;;;;;15.25;4.63;;;;;;;8.10;65.72;100018.50;5021893;28;20399;-52
2024/02/08 10:05:50;;;;;;;18.67;5.10;;;;;;;8.63;64.36;100005.13;5028906;28;20033;-48
2024/02/08 10:08:28;;;;;;;14.80;4.75;;;;;;;8.57;65.35;99995.56;5027202;28;20450;-49
2024/02/08 10:11:10;;;;;;;15.52;4.57;;;;;;;8.21;67.76;99996.09;5028759;28;20030;-48
2024/02/08 10:16:43;;;;;;;14.60;5.10;;;;;;;8.23;66.86;99963.22;4986250;28;20030;-46
2024/02/08 10:21:57;;;;;;;18.70;5.22;;;;;;;8.76;64.77;100000.03;5028517;28;20034;-48
2024/02/08 10:24:44;;;;;;;16.05;5.10;;;;;;;8.84;65.21;99997.47;5029139;28;20033;-47
2024/02/08 10:27:22;;;;;;;23.17;5.07;;;;;;;8.46;65.43;99987.69;5028336;28;20731;-48
2024/02/08 10:29:50;;;;;;;16.65;5.18;;;;;;;8.90;65.56;99995.75;5028170;28;20526;-46
2024/02/08 10:32:19;;;;;;;16.75;5.40;;;;;;;8.58;66.11;99979.13;5029068;28;20025;-47
2024/02/08 10:34:45;;;;;;;18.95;5.28;;;;;;;8.95;65.56;99973.28;5028775;28;20033;-48
2024/02/08 10:40:28;;;;;;;16.77;5.25;;;;;;;8.58;66.53;99980.84;4998843;28;20034;-49
2024/02/08 10:42:58;;;;;;;17.60;5.38;;;;;;;8.44;67.31;99989.38;5028124;28;20048;-48
2024/02/08 10:45:24;;;;;;;22.13;6.63;;;;;;;7.69;69.25;99974.81;5028807;28;20040;-46
2024/02/08 10:47:52;;;;;;;15.80;5.88;;;;;;;7.54;69.79;99977.25;5028022;28;20101;-48
2024/02/08 10:50:24;;;;;;;20.52;6.07;;;;;;;8.34;68.66;99990.19;5028393;28;20049;-48
2024/02/08 10:52:51;;;;;;;20.50;6.15;;;;;;;8.09;69.69;99994.25;5020331;28;20160;-47
2024/02/08 10:55:30;;;;;;;21.70;6.55;;;;;;;8.70;67.84;99983.53;5028982;28;20037;-47
2024/02/08 10:58:55;;;;;;;21.52;6.55;;;;;;;8.88;66.76;99987.09;5027833;28;20554;-46
2024/02/08 11:08:32;;;;;;;18.55;7.05;;;;;;;8.89;68.66;99986.25;5032039;28;20033;-49
2024/02/08 11:11:03;;;;;;;25.43;7.70;;;;;;;8.81;68.25;99974.94;5032015;28;20510;-47
2024/02/08 11:13:37;;;;;;;23.27;6.95;;;;;;;9.20;67.42;99981.22;5030970;28;20033;-48
2024/02/08 11:16:19;;;;;;;14.02;6.82;;;;;;;9.49;66.29;99976.13;5031774;28;20025;-48
2024/02/08 11:18:47;;;;;;;22.63;7.47;;;;;;;9.22;67.33;99962.13;5030781;28;20038;-50
2024/02/08 11:21:19;;;;;;;18.38;6.95;;;;;;;9.55;66.98;99952.72;5031905;28;20021;-45
2024/02/08 11:23:57;;;;;;;18.92;7.30;;;;;;;8.80;68.08;99946.31;5032234;28;20033;-48
2024/02/08 11:26:25;;;;;;;18.38;7.25;;;;;;;8.94;68.17;99932.56;5031823;28;20039;-48
2024/02/08 11:29:18;;;;;;;18.20;7.20;;;;;;;8.70;67.95;99926.34;5030704;28;20037;-52
2024/02/08 11:31:46;;;;;;;23.30;7.38;;;;;;;8.79;68.35;99909.06;5031210;28;20038;-53
2024/02/08 11:34:14;;;;;;;20.88;7.40;;;;;;;8.60;69.30;99889.03;5031828;28;20033;-51
2024/02/08 11:36:42;;;;;;;16.50;6.90;;;;;;;9.31;67.38;99883.28;5030851;28;20172;-52
2024/02/08 11:39:27;;;;;;;18.17;7.10;;;;;;;8.85;67.88;99877.91;5030897;28;20029;-48
2024/02/08 11:42:05;;;;;;;20.85;6.85;;;;;;;8.46;69.25;99864.72;5031011;28;20045;-47
2024/02/08 11:44:36;;;;;;;17.73;6.90;;;;;;;8.91;68.19;99864.06;5031514;28;20030;-50
2024/02/08 11:47:17;;;;;;;18.00;6.90;;;;;;;8.29;69.10;99846.44;5030656;28;20025;-52
2024/02/08 11:50:04;;;;;;;16.95;7.10;;;;;;;8.64;68.79;99838.84;5030560;28;20030;-47
2024/02/08 11:52:31;;;;;;;16.92;7.15;;;;;;;8.79;68.40;99845.81;5031216;28;20029;-50
2024/02/08 11:55:08;;;;;;;19.30;6.93;;;;;;;8.23;69.34;99836.00;5030830;28;20052;-48
2024/02/08 11:57:37;;;;;;;20.13;7.20;;;;;;;8.33;69.45;99837.81;5031151;28;20044;-50
2024/02/08 12:00:16;;;;;;;15.23;6.88;;;;;;;8.50;68.95;99833.59;5022872;28;20033;-51
2024/02/08 12:02:58;;;;;;;19.70;6.45;;;;;;;8.59;69.02;99826.69;5030712;28;20128;-49
2024/02/08 12:05:28;;;;;;;21.73;6.93;;;;;;;8.45;69.04;99809.31;5015103;28;20054;-48
2024/02/08 12:08:07;;;;;;;20.02;7.28;;;;;;;8.55;69.03;99803.28;5029426;28;20084;-49
2024/02/08 12:10:33;;;;;;;19.58;7.15;;;;;;;7.97;71.08;99796.03;5031226;28;20029;-50
2024/02/08 12:12:59;;;;;;;23.02;7.70;;;;;;;8.02;70.42;99797.78;5029975;28;20132;-50
2024/02/08 12:15:26;;;;;;;18.40;7.10;;;;;;;8.04;71.44;99805.59;5031200;28;20083;-53
2024/02/08 12:18:08;;;;;;;16.85;7.50;;;;;;;8.41;70.16;99802.38;5030250;28;20570;-47
2024/02/08 12:20:36;;;;;;;21.08;7.57;;;;;;;8.56;69.21;99791.19;5031015;28;20041;-49
2024/02/08 12:23:02;;;;;;;18.58;7.30;;;;;;;8.24;70.71;99792.69;5030619;28;20385;-50
2024/02/08 12:25:28;;;;;;;20.45;6.97;;;;;;;8.23;69.34;99789.28;5031168;28;20116;-49
2024/02/08 12:27:58;;;;;;;16.55;7.03;;;;;;;8.37;69.96;99781.56;5030144;28;20038;-50
2024/02/08 12:30:32;;;;;;;15.98;6.55;;;;;;;7.88;70.83;99773.47;5030766;28;20036;-50
2024/02/08 12:32:58;;;;;;;16.33;6.55;;;;;;;8.19;70.76;99763.25;5029663;28;20033;-49
2024/02/08 12:35:27;;;;;;;20.70;7.00;;;;;;;8.39;69.91;99753.88;5030856;28;20327;-52
2024/02/08 12:37:58;;;;;;;15.15;6.50;;;;;;;7.93;71.32;99740.63;5029591;28;20049;-50
2024/02/08 12:40:29;;;;;;;17.83;6.70;;;;;;;7.66;72.59;99748.25;5030690;28;20036;-51
2024/02/08 12:42:57;;;;;;;19.05;6.57;;;;;;;8.03;70.95;99742.44;5029949;28;20190;-52
2024/02/08 12:45:22;;;;;;;17.35;6.05;;;;;;;7.60;72.36;99730.03;5030386;28;20056;-47
2024/02/08 12:47:49;;;;;;;17.27;6.50;;;;;;;8.09;72.02;99720.81;5029715;28;20038;-51
2024/02/08 12:50:16;;;;;;;18.45;6.53;;;;;;;7.84;73.27;99713.75;5030251;28;20075;-51
2024/02/08 12:52:42;;;;;;;18.60;7.32;;;;;;;7.81;73.34;99717.19;5029800;28;20045;-48
2024/02/08 12:55:13;;;;;;;17.30;6.93;;;;;;;7.89;72.70;99705.16;5030125;28;20038;-48
2024/02/08 12:57:40;;;;;;;15.45;6.65;;;;;;;7.47;74.64;99689.31;5029197;28;20025;-51
2024/02/08 13:00:13;;;;;;;18.70;6.75;;;;;;;7.80;73.80;99683.47;5029608;28;20040;-47
2024/02/08 13:02:39;;;;;;;20.42;6.63;;;;;;;7.44;74.86;99674.59;5029442;28;20116;-49
2024/02/08 13:05:05;;;;;;;16.95;6.72;;;;;;;7.66;74.01;99678.19;5030099;28;20156;-48
2024/02/08 13:07:30;;;;;;;15.02;6.63;;;;;;;7.73;74.67;99675.66;5029552;28;20721;-49
2024/02/08 13:10:04;;;;;;;21.88;7.00;;;;;;;7.94;74.16;99674.00;5029116;28;20040;-48
2024/02/08 13:12:30;;;;;;;21.40;7.10;;;;;;;7.47;74.83;99663.38;5029373;28;20033;-48
2024/02/08 13:14:57;;;;;;;20.60;6.93;;;;;;;7.26;75.14;99636.44;5029417;28;22751;-49
2024/02/08 13:17:26;;;;;;;16.75;6.78;;;;;;;7.52;75.41;99627.97;5029359;28;20030;-47
2024/02/08 13:19:55;;;;;;;20.38;7.72;;;;;;;7.94;74.86;99624.72;5028846;28;20168;-48
2024/02/08 13:22:25;;;;;;;19.08;8.20;;;;;;;7.59;75.24;99637.53;5028904;28;20037;-50
2024/02/08 13:24:54;;;;;;;20.38;8.05;;;;;;;8.13;74.16;99639.50;5029259;28;20033;-48
2024/02/08 13:27:28;;;;;;;18.08;8.90;;;;;;;7.56;75.65;99648.72;5029382;28;20496;-48
2024/02/08 13:30:04;;;;;;;24.33;8.77;;;;;;;7.75;75.08;99644.50;5028644;28;20116;-48
2024/02/08 13:32:33;;;;;;;21.98;8.90;;;;;;;7.77;75.09;99616.00;5029443;28;20163;-51
2024/02/08 13:35:00;;;;;;;24.48;9.27;;;;;;;7.47;76.32;99611.53;5029171;28;20153;-51
2024/02/08 13:37:29;;;;;;;26.48;9.70;;;;;;;6.99;78.15;99591.34;5029142;28;20036;-50
2024/02/08 13:40:03;;;;;;;24.98;9.48;;;;;;;7.32;77.77;99579.44;5028417;28;20037;-50
2024/02/08 13:42:32;;;;;;;25.13;9.30;;;;;;;7.54;77.18;99577.84;5029316;28;20057;-51